createdAt,value
2023-03-28T00:01:11.892Z,1.90
2023-03-28T00:03:41.267Z,1.70
2023-03-28T00:06:13.211Z,1.60
2023-03-28T00:08:42.142Z,1.83
2023-03-28T00:11:12.547Z,7.30
2023-03-28T00:13:41.088Z,9.33
2023-03-28T00:16:13.321Z,3.63
2023-03-28T00:18:43.132Z,3.13
2023-03-28T00:21:24.204Z,2.70
2023-03-28T00:23:54.049Z,2.23
2023-03-28T00:26:26.546Z,2.47
2023-03-28T00:28:55.805Z,1.97
2023-03-28T00:31:25.481Z,1.90
2023-03-28T00:33:54.698Z,2.00
2023-03-28T00:36:26.683Z,2.20
2023-03-28T00:38:55.983Z,1.60
2023-03-28T00:41:26.619Z,2.23
2023-03-28T00:43:56.345Z,2.33
2023-03-28T00:46:29.784Z,1.93
2023-03-28T00:49:02.117Z,2.00
2023-03-28T00:51:36.622Z,2.00
2023-03-28T00:54:06.977Z,2.20
2023-03-28T00:56:37.998Z,1.87
2023-03-28T00:59:10.124Z,1.77
2023-03-28T01:01:38.763Z,2.90
2023-03-28T01:04:10.314Z,2.40
2023-03-28T01:06:46.385Z,2.77
2023-03-28T01:09:20.080Z,2.00
2023-03-28T01:11:53.203Z,2.30
2023-03-28T01:14:24.284Z,1.70
2023-03-28T01:16:56.351Z,2.17
2023-03-28T01:19:37.160Z,1.83
2023-03-28T01:22:38.095Z,2.10
2023-03-28T01:25:36.534Z,1.67
2023-03-28T01:28:13.603Z,1.77
2023-03-28T01:31:11.396Z,2.03
2023-03-28T01:34:34.113Z,1.17
2023-03-28T01:37:17.947Z,1.80
2023-03-28T01:40:11.185Z,2.17
2023-03-28T01:42:52.417Z,2.17
2023-03-28T01:45:28.379Z,1.90
2023-03-28T01:48:06.238Z,1.93
2023-03-28T01:50:44.127Z,1.80
2023-03-28T01:53:21.857Z,1.93
2023-03-28T01:55:59.056Z,2.07
2023-03-28T01:58:36.459Z,2.10
2023-03-28T02:01:15.587Z,2.10
2023-03-28T02:03:49.585Z,2.23
2023-03-28T02:06:40.924Z,2.23
2023-03-28T02:09:17.913Z,2.00
2023-03-28T02:12:09.251Z,2.40
2023-03-28T02:15:05.096Z,2.37
2023-03-28T02:17:39.816Z,2.10
2023-03-28T02:20:14.730Z,1.93
2023-03-28T02:23:18.333Z,1.97
2023-03-28T02:26:01.503Z,2.30
2023-03-28T02:28:50.121Z,1.90
2023-03-28T02:31:36.142Z,2.53
2023-03-28T02:34:05.736Z,2.10
2023-03-28T02:36:44.320Z,2.47
2023-03-28T02:39:33.450Z,1.70
2023-03-28T02:42:20.782Z,2.10
2023-03-28T02:45:08.084Z,2.60
2023-03-28T02:47:40.048Z,1.97
2023-03-28T02:50:20.735Z,2.73
2023-03-28T02:52:56.122Z,1.90
2023-03-28T02:55:32.913Z,2.60
2023-03-28T02:58:22.571Z,2.67
2023-03-28T03:00:51.851Z,2.83
2023-03-28T03:03:21.872Z,3.20
2023-03-28T03:05:50.703Z,2.97
2023-03-28T03:08:19.176Z,2.80
2023-03-28T03:10:47.829Z,2.37
2023-03-28T03:13:17.633Z,2.60
2023-03-28T03:15:46.253Z,2.40
2023-03-28T03:18:21.760Z,2.10
2023-03-28T03:20:50.335Z,2.27
2023-03-28T03:23:19.032Z,2.70
2023-03-28T03:25:50.486Z,2.53
2023-03-28T03:28:33.352Z,2.00
2023-03-28T03:31:04.323Z,2.33
2023-03-28T03:33:54.097Z,2.90
2023-03-28T03:36:30.325Z,2.50
2023-03-28T03:39:01.239Z,3.03
2023-03-28T03:41:29.985Z,2.03
2023-03-28T03:43:59.830Z,2.57
2023-03-28T03:46:31.543Z,2.60
2023-03-28T03:49:00.248Z,2.73
2023-03-28T03:51:28.663Z,2.93
2023-03-28T03:53:59.402Z,2.53
2023-03-28T03:56:39.278Z,2.27
2023-03-28T03:59:09.265Z,2.73
2023-03-28T04:01:41.435Z,2.63
2023-03-28T04:04:22.504Z,2.60
2023-03-28T04:07:09.472Z,2.33
2023-03-28T04:09:38.395Z,2.10
2023-03-28T04:12:08.957Z,2.43
2023-03-28T04:15:09.749Z,2.37
2023-03-28T04:17:41.210Z,2.90
2023-03-28T04:20:14.971Z,2.87
2023-03-28T04:23:01.246Z,2.30
2023-03-28T04:25:34.091Z,2.53
2023-03-28T04:28:09.354Z,2.60
2023-03-28T04:30:45.278Z,2.43
2023-03-28T04:33:40.150Z,2.50
2023-03-28T04:36:11.244Z,2.53
2023-03-28T04:38:41.671Z,2.83
2023-03-28T04:41:26.789Z,2.40
2023-03-28T04:44:03.912Z,2.57
2023-03-28T04:46:41.589Z,2.70
2023-03-28T04:49:15.044Z,2.60
2023-03-28T04:51:43.624Z,2.83
2023-03-28T04:54:12.142Z,3.13
2023-03-28T04:56:50.188Z,2.57
2023-03-28T04:59:25.900Z,2.83
2023-03-28T05:01:56.770Z,4.30
2023-03-28T05:04:45.295Z,3.30
2023-03-28T05:07:15.667Z,3.23
2023-03-28T05:09:44.530Z,4.13
2023-03-28T05:12:13.207Z,3.80
2023-03-28T05:15:05.628Z,3.50
2023-03-28T05:17:41.491Z,3.97
2023-03-28T05:20:21.113Z,3.63
2023-03-28T05:22:54.065Z,4.00
2023-03-28T05:25:22.947Z,3.93
2023-03-28T05:27:51.959Z,3.90
2023-03-28T05:30:21.062Z,4.00
2023-03-28T05:32:55.033Z,3.97
2023-03-28T05:35:23.636Z,4.33
2023-03-28T05:37:53.017Z,4.37
2023-03-28T05:40:21.629Z,4.37
2023-03-28T05:42:51.800Z,4.73
2023-03-28T05:45:22.679Z,4.77
2023-03-28T05:47:52.436Z,5.50
2023-03-28T05:50:23.934Z,4.70
2023-03-28T05:52:57.862Z,5.57
2023-03-28T05:55:26.411Z,5.40
2023-03-28T05:57:54.881Z,5.20
2023-03-28T06:00:25.301Z,5.90
2023-03-28T06:02:54.994Z,5.73
2023-03-28T06:05:34.404Z,6.70
2023-03-28T06:08:04.790Z,6.33
2023-03-28T06:10:33.401Z,5.60
2023-03-28T06:13:16.864Z,5.70
2023-03-28T06:15:47.973Z,5.37
2023-03-28T06:18:18.046Z,5.00
2023-03-28T06:20:49.765Z,5.40
2023-03-28T06:23:18.755Z,5.97
2023-03-28T06:25:47.456Z,5.23
2023-03-28T06:28:19.152Z,5.27
2023-03-28T06:31:15.819Z,4.70
2023-03-28T06:33:46.950Z,5.10
2023-03-28T06:36:16.819Z,5.20
2023-03-28T06:38:46.631Z,4.87
2023-03-28T06:41:15.214Z,3.63
2023-03-28T06:43:43.979Z,4.03
2023-03-28T06:46:33.136Z,2.83
2023-03-28T06:49:02.101Z,3.47
2023-03-28T06:51:50.509Z,3.07
2023-03-28T06:54:19.045Z,3.00
2023-03-28T06:56:47.581Z,2.67
2023-03-28T06:59:16.204Z,3.03
2023-03-28T07:01:47.593Z,2.73
2023-03-28T07:04:18.862Z,2.50
2023-03-28T07:06:49.898Z,3.10
2023-03-28T07:09:18.404Z,2.23
2023-03-28T07:11:59.390Z,2.43
2023-03-28T07:14:28.155Z,3.40
2023-03-28T07:16:57.218Z,2.20
2023-03-28T07:19:27.796Z,3.00
2023-03-28T07:21:58.434Z,3.10
2023-03-28T07:24:27.549Z,3.03
2023-03-28T07:27:15.446Z,3.53
2023-03-28T07:29:46.747Z,3.00
2023-03-28T07:32:16.120Z,4.07
2023-03-28T07:34:47.003Z,2.83
2023-03-28T07:37:22.876Z,2.47
2023-03-28T07:40:26.586Z,2.60
2023-03-28T07:42:55.310Z,3.40
2023-03-28T07:45:23.849Z,2.90
2023-03-28T07:47:53.517Z,2.53
2023-03-28T07:50:24.755Z,3.30
2023-03-28T07:52:57.800Z,3.33
2023-03-28T07:55:28.974Z,3.50
2023-03-28T07:57:58.396Z,2.77
2023-03-28T08:00:36.357Z,2.80
2023-03-28T08:03:24.258Z,2.73
2023-03-28T08:05:53.358Z,2.40
2023-03-28T08:08:25.364Z,2.97
2023-03-28T08:11:06.716Z,2.70
2023-03-28T08:13:35.725Z,2.60
2023-03-28T08:16:11.149Z,3.17
2023-03-28T08:18:39.713Z,2.30
2023-03-28T08:21:09.045Z,2.53
2023-03-28T08:23:38.985Z,2.20
2023-03-28T08:26:27.122Z,2.30
2023-03-28T08:28:59.483Z,1.90
2023-03-28T08:31:30.363Z,2.70
2023-03-28T08:34:05.629Z,2.67
2023-03-28T08:36:38.614Z,3.00
2023-03-28T08:39:15.839Z,2.80
2023-03-28T08:42:00.134Z,2.43
2023-03-28T08:44:45.574Z,2.87
2023-03-28T08:47:20.715Z,2.57
2023-03-28T08:49:57.722Z,2.67
2023-03-28T08:52:27.119Z,3.17
2023-03-28T08:55:02.410Z,2.87
2023-03-28T08:57:34.832Z,2.83
2023-03-28T09:00:12.771Z,3.10
2023-03-28T09:02:42.099Z,3.17
2023-03-28T09:05:23.379Z,2.23
2023-03-28T09:08:04.507Z,2.70
2023-03-28T09:10:40.689Z,2.30
2023-03-28T09:13:30.056Z,2.70
2023-03-28T09:16:19.080Z,2.10
2023-03-28T09:19:36.886Z,1.77
2023-03-28T09:22:47.143Z,1.50
2023-03-28T09:25:32.424Z,1.27
2023-03-28T09:28:10.953Z,1.50
2023-03-28T09:30:45.216Z,1.77
2023-03-28T09:33:16.300Z,2.03
2023-03-28T09:35:48.241Z,3.03
2023-03-28T09:38:22.282Z,2.37
2023-03-28T09:40:56.163Z,2.13
2023-03-28T09:43:32.437Z,1.80
2023-03-28T09:46:30.137Z,2.30
2023-03-28T09:49:16.197Z,1.77
2023-03-28T09:51:46.863Z,1.83
2023-03-28T09:54:15.538Z,1.80
2023-03-28T09:56:46.952Z,1.83
2023-03-28T09:59:29.186Z,2.33
2023-03-28T10:02:03.080Z,1.77
2023-03-28T10:04:39.489Z,1.80
2023-03-28T10:07:28.204Z,1.90
2023-03-28T10:10:08.684Z,1.77
2023-03-28T10:12:41.531Z,2.30
2023-03-28T10:15:31.353Z,1.83
2023-03-28T10:18:20.319Z,1.80
2023-03-28T10:20:58.130Z,1.80
2023-03-28T10:23:26.966Z,2.10
2023-03-28T10:26:06.526Z,1.27
2023-03-28T10:28:37.840Z,1.60
2023-03-28T10:31:08.839Z,2.13
2023-03-28T10:33:42.621Z,1.33
2023-03-28T10:36:44.549Z,1.00
2023-03-28T10:39:23.699Z,1.57
2023-03-28T10:42:11.916Z,1.50
2023-03-28T10:45:02.998Z,1.17
2023-03-28T10:47:36.717Z,1.43
2023-03-28T10:50:23.430Z,1.47
2023-03-28T10:52:59.933Z,1.13
2023-03-28T10:55:38.645Z,1.40
2023-03-28T10:58:15.634Z,2.00
2023-03-28T11:00:55.193Z,1.20
2023-03-28T11:03:44.086Z,1.10
2023-03-28T11:06:20.412Z,1.77
2023-03-28T11:08:58.923Z,1.03
2023-03-28T11:12:06.466Z,1.13
2023-03-28T11:14:44.573Z,1.30
2023-03-28T11:17:27.710Z,1.93
2023-03-28T11:20:23.698Z,1.23
2023-03-28T11:23:41.322Z,1.90
2023-03-28T11:26:33.950Z,1.77
2023-03-28T11:29:42.093Z,2.40
2023-03-28T11:32:18.119Z,2.10
2023-03-28T11:34:58.946Z,1.57
2023-03-28T11:37:33.691Z,1.93
2023-03-28T11:40:11.665Z,1.70
2023-03-28T11:42:57.227Z,1.87
2023-03-28T11:45:46.752Z,2.03
2023-03-28T11:48:22.576Z,1.97
2023-03-28T11:50:59.962Z,1.80
2023-03-28T11:53:44.054Z,2.00
2023-03-28T11:56:26.609Z,1.93
2023-03-28T11:59:10.665Z,1.77
2023-03-28T12:01:42.271Z,1.80
2023-03-28T12:04:16.223Z,1.80
2023-03-28T12:07:02.302Z,2.27
2023-03-28T12:09:44.751Z,1.77
2023-03-28T12:12:19.754Z,1.83
2023-03-28T12:14:53.703Z,1.90
2023-03-28T12:17:48.383Z,1.60
2023-03-28T12:20:23.890Z,1.30
2023-03-28T12:22:57.416Z,1.43
2023-03-28T12:25:55.084Z,1.37
2023-03-28T12:28:32.033Z,1.47
2023-03-28T12:31:10.507Z,1.63
2023-03-28T12:33:48.805Z,1.03
2023-03-28T12:36:37.447Z,1.00
2023-03-28T12:39:19.800Z,1.50
2023-03-28T12:41:52.326Z,1.80
2023-03-28T12:44:25.374Z,1.13
2023-03-28T12:47:00.726Z,1.70
2023-03-28T12:49:40.392Z,1.13
2023-03-28T12:52:15.968Z,1.60
2023-03-28T12:54:58.326Z,1.83
2023-03-28T12:57:47.510Z,1.77
2023-03-28T13:00:47.825Z,2.07
2023-03-28T13:03:46.688Z,1.37
2023-03-28T13:06:29.108Z,1.37
2023-03-28T13:09:08.779Z,1.50
2023-03-28T13:11:44.962Z,1.27
2023-03-28T13:14:35.800Z,1.50
2023-03-28T13:17:19.806Z,2.10
2023-03-28T13:19:52.508Z,2.07
2023-03-28T13:22:30.794Z,1.67
2023-03-28T13:25:28.502Z,2.07
2023-03-28T13:28:00.587Z,2.30
2023-03-28T13:30:32.180Z,2.53
2023-03-28T13:33:03.354Z,1.83
2023-03-28T13:36:18.325Z,1.97
2023-03-28T13:38:48.493Z,1.90
2023-03-28T13:41:55.208Z,2.00
2023-03-28T13:44:29.939Z,1.90
2023-03-28T13:46:59.801Z,2.67
2023-03-28T13:49:42.046Z,1.90
2023-03-28T13:52:15.949Z,2.20
2023-03-28T13:54:45.836Z,2.70
2023-03-28T13:57:18.110Z,2.23
2023-03-28T13:59:55.960Z,1.80
2023-03-28T14:02:36.956Z,2.00
2023-03-28T14:05:14.269Z,2.43
2023-03-28T14:07:42.986Z,1.80
2023-03-28T14:10:32.312Z,1.93
2023-03-28T14:13:04.119Z,1.77
2023-03-28T14:15:36.713Z,1.83
2023-03-28T14:18:08.303Z,1.50
2023-03-28T14:20:39.668Z,2.37
2023-03-28T14:23:08.902Z,1.80
2023-03-28T14:25:37.452Z,2.77
2023-03-28T14:28:09.764Z,2.20
2023-03-28T14:30:42.642Z,1.50
2023-03-28T14:33:21.402Z,1.87
2023-03-28T14:36:01.733Z,1.70
2023-03-28T14:38:33.495Z,2.30
2023-03-28T14:41:14.255Z,1.90
2023-03-28T14:43:42.948Z,2.10
2023-03-28T14:46:12.320Z,2.27
2023-03-28T14:48:43.428Z,2.27
2023-03-28T14:51:14.671Z,2.63
2023-03-28T14:53:46.306Z,2.13
2023-03-28T14:56:19.332Z,1.67
2023-03-28T14:58:49.912Z,2.30
2023-03-28T15:01:23.006Z,2.07
2023-03-28T15:03:58.576Z,2.50
2023-03-28T15:06:29.114Z,2.03
2023-03-28T15:08:59.773Z,1.70
2023-03-28T15:11:32.435Z,2.53
2023-03-28T15:14:04.338Z,2.37
2023-03-28T15:16:37.839Z,1.93
2023-03-28T15:19:15.076Z,2.40
2023-03-28T15:21:49.299Z,1.90
2023-03-28T15:24:19.823Z,2.13
2023-03-28T15:26:53.992Z,1.70
2023-03-28T15:29:25.128Z,1.67
2023-03-28T15:31:56.610Z,1.97
2023-03-28T15:34:28.270Z,2.53
2023-03-28T15:37:00.937Z,2.17
2023-03-28T15:39:31.896Z,2.37
2023-03-28T15:42:02.170Z,2.30
2023-03-28T15:44:33.100Z,2.50
2023-03-28T15:47:04.746Z,2.17
2023-03-28T15:49:38.513Z,2.70
2023-03-28T15:52:15.858Z,2.80
2023-03-28T15:54:46.649Z,2.00
2023-03-28T15:57:17.164Z,1.83
2023-03-28T15:59:50.980Z,1.93
2023-03-28T16:02:33.100Z,2.17
2023-03-28T16:05:05.493Z,2.00
2023-03-28T16:07:36.247Z,1.77
2023-03-28T16:10:05.636Z,1.90
2023-03-28T16:12:42.524Z,2.10
2023-03-28T16:15:32.694Z,2.00
2023-03-28T16:22:53.810Z,2.20
2023-03-28T16:25:22.415Z,2.10
2023-03-28T16:31:39.402Z,2.10
2023-03-28T16:34:10.078Z,2.60
2023-03-28T16:36:39.271Z,2.13
2023-03-28T16:39:09.169Z,2.20
2023-03-28T16:41:37.741Z,3.00
2023-03-28T16:44:06.608Z,3.30
2023-03-28T16:46:35.261Z,2.37
2023-03-28T16:49:03.982Z,3.40
2023-03-28T16:51:32.562Z,3.70
2023-03-28T16:54:01.126Z,4.67
2023-03-28T16:56:31.378Z,3.07
2023-03-28T16:58:59.969Z,3.53
2023-03-28T17:01:28.588Z,3.97
2023-03-28T17:03:57.149Z,4.80
2023-03-28T17:06:27.385Z,2.60
2023-03-28T17:08:56.382Z,3.53
2023-03-28T17:11:26.169Z,3.50
2023-03-28T17:13:56.467Z,3.50
2023-03-28T17:16:25.112Z,3.10
2023-03-28T17:18:54.300Z,3.47
2023-03-28T17:21:22.867Z,3.37
2023-03-28T17:23:52.730Z,2.70
2023-03-28T17:26:21.564Z,3.37
2023-03-28T17:28:51.582Z,2.47
2023-03-28T17:31:22.018Z,3.67
2023-03-28T17:33:51.108Z,3.87
2023-03-28T17:36:22.004Z,3.10
2023-03-28T17:38:51.545Z,2.90
2023-03-28T17:41:23.070Z,2.53
2023-03-28T17:43:52.855Z,3.40
2023-03-28T17:46:23.261Z,3.77
2023-03-28T17:48:52.985Z,2.80
2023-03-28T17:51:21.854Z,3.03
2023-03-28T17:53:50.706Z,4.40
2023-03-28T17:56:19.542Z,3.27
2023-03-28T17:58:48.100Z,4.20
2023-03-28T18:01:19.615Z,3.40
2023-03-28T18:03:49.911Z,3.60
2023-03-28T18:06:41.874Z,2.70
2023-03-28T18:09:10.750Z,2.70
2023-03-28T18:11:39.853Z,2.43
2023-03-28T18:14:09.141Z,2.80
2023-03-28T18:16:38.842Z,2.97
2023-03-28T18:19:12.467Z,3.43
2023-03-28T18:21:41.345Z,2.63
2023-03-28T18:24:09.909Z,2.50
2023-03-28T18:26:38.450Z,3.20
2023-03-28T18:29:07.377Z,3.30
2023-03-28T18:31:36.808Z,3.27
2023-03-28T18:34:08.006Z,3.10
2023-03-28T18:36:40.543Z,3.33
2023-03-28T18:39:10.367Z,3.27
2023-03-28T18:41:39.298Z,2.50
2023-03-28T18:44:08.091Z,2.77
2023-03-28T18:46:36.883Z,2.67
2023-03-28T18:49:06.501Z,2.70
2023-03-28T18:51:36.648Z,3.00
2023-03-28T18:54:05.361Z,2.20
2023-03-28T18:56:34.750Z,2.70
2023-03-28T18:59:04.029Z,3.30
2023-03-28T19:01:34.165Z,3.90
2023-03-28T19:04:02.887Z,2.50
2023-03-28T19:06:31.587Z,3.00
2023-03-28T19:09:01.614Z,2.63
2023-03-28T19:11:30.198Z,3.67
2023-03-28T19:13:58.828Z,2.73
2023-03-28T19:16:27.795Z,2.90
2023-03-28T19:18:56.350Z,2.83
2023-03-28T19:21:25.022Z,2.77
2023-03-28T19:23:53.802Z,2.90
2023-03-28T19:26:23.821Z,2.80
2023-03-28T19:28:53.483Z,3.80
2023-03-28T19:31:24.160Z,2.83
2023-03-28T19:33:53.173Z,2.90
2023-03-28T19:36:21.883Z,2.93
2023-03-28T19:38:50.486Z,3.83
2023-03-28T19:41:20.946Z,3.70
2023-03-28T19:43:51.232Z,3.40
2023-03-28T19:46:26.071Z,3.83
2023-03-28T19:48:58.583Z,3.43
2023-03-28T19:51:27.470Z,3.73
2023-03-28T19:53:57.009Z,3.97
2023-03-28T19:56:26.607Z,3.57
2023-03-28T19:58:56.593Z,3.80
2023-03-28T20:01:25.243Z,3.20
2023-03-28T20:03:53.837Z,3.90
2023-03-28T20:06:23.528Z,3.13
2023-03-28T20:08:52.425Z,3.90
2023-03-28T20:11:21.993Z,3.43
2023-03-28T20:13:50.741Z,3.20
2023-03-28T20:16:20.766Z,3.00
2023-03-28T20:18:49.352Z,3.93
2023-03-28T20:21:18.076Z,3.40
2023-03-28T20:23:46.667Z,3.33
2023-03-28T20:26:18.271Z,3.13
2023-03-28T20:28:49.962Z,3.37
2023-03-28T20:31:20.603Z,3.60
2023-03-28T20:33:49.476Z,2.60
2023-03-28T20:36:17.991Z,3.33
2023-03-28T20:38:46.639Z,3.37
2023-03-28T20:41:16.917Z,2.17
2023-03-28T20:43:47.871Z,2.43
2023-03-28T20:46:19.629Z,3.20
2023-03-28T20:48:53.031Z,3.10
2023-03-28T20:51:23.595Z,2.70
2023-03-28T20:53:54.912Z,2.60
2023-03-28T20:56:23.999Z,2.33
2023-03-28T20:58:53.075Z,2.67
2023-03-28T21:01:25.293Z,2.47
2023-03-28T21:03:57.963Z,2.87
2023-03-28T21:06:29.413Z,2.90
2023-03-28T21:09:00.452Z,2.43
2023-03-28T21:11:30.799Z,2.50
2023-03-28T21:14:01.072Z,2.37
2023-03-28T21:16:31.366Z,2.30
2023-03-28T21:19:02.552Z,2.30
2023-03-28T21:21:33.867Z,2.20
2023-03-28T21:24:03.586Z,2.23
2023-03-28T21:26:33.038Z,2.20
2023-03-28T21:29:01.652Z,2.30
2023-03-28T21:31:32.113Z,2.00
2023-03-28T21:34:02.149Z,2.00
2023-03-28T21:36:30.954Z,2.20
2023-03-28T21:38:59.510Z,2.37
2023-03-28T21:41:28.317Z,1.97
2023-03-28T21:43:56.976Z,1.77
2023-03-28T21:46:26.068Z,1.90
2023-03-28T21:48:54.653Z,2.10
2023-03-28T21:51:25.781Z,1.90
2023-03-28T21:53:54.331Z,2.40
2023-03-28T21:56:23.084Z,2.07
2023-03-28T21:58:51.580Z,2.13
2023-03-28T22:01:20.588Z,2.50
2023-03-28T22:03:49.536Z,2.20
2023-03-28T22:06:19.249Z,2.17
2023-03-28T22:08:52.407Z,2.23
2023-03-28T22:11:27.418Z,2.17
2023-03-28T22:14:01.365Z,2.13
2023-03-28T22:16:31.398Z,2.30
2023-03-28T22:19:00.732Z,2.03
2023-03-28T22:21:31.500Z,1.77
2023-03-28T22:24:03.520Z,1.67
2023-03-28T22:26:32.525Z,1.63
2023-03-28T22:29:01.261Z,1.30
2023-03-28T22:31:29.902Z,2.20
2023-03-28T22:33:58.464Z,1.70
2023-03-28T22:36:27.066Z,1.80
2023-03-28T22:38:56.960Z,1.60
2023-03-28T22:41:31.905Z,2.33
2023-03-28T22:44:00.634Z,2.10
2023-03-28T22:46:29.984Z,2.13
2023-03-28T22:48:59.050Z,1.50
2023-03-28T22:51:29.910Z,2.00
2023-03-28T22:54:01.718Z,1.60
2023-03-28T22:56:31.700Z,1.80
2023-03-28T22:59:01.290Z,1.87
2023-03-28T23:01:30.404Z,1.47
2023-03-28T23:03:59.186Z,1.97
2023-03-28T23:06:28.548Z,1.80
2023-03-28T23:08:58.533Z,1.90
2023-03-28T23:11:27.581Z,1.70
2023-03-28T23:13:57.670Z,1.50
2023-03-28T23:16:26.394Z,1.83
2023-03-28T23:18:55.022Z,1.90
2023-03-28T23:21:24.458Z,1.60
2023-03-28T23:23:53.324Z,1.63
2023-03-28T23:26:22.297Z,1.80
2023-03-28T23:28:51.063Z,1.50
2023-03-28T23:31:20.964Z,2.00
2023-03-28T23:33:49.569Z,2.17
2023-03-28T23:36:20.615Z,2.07
2023-03-28T23:38:49.978Z,1.57
2023-03-28T23:41:18.518Z,1.40
2023-03-28T23:43:46.999Z,1.77
2023-03-28T23:46:15.753Z,1.97
2023-03-28T23:48:45.994Z,2.03
2023-03-28T23:51:19.326Z,1.90
2023-03-28T23:53:47.830Z,1.80
2023-03-28T23:56:16.534Z,1.60
2023-03-28T23:58:45.157Z,1.83
